sensor_id;sensor_type;location;lat;lon;timestamp;temperature;humidity
73570;SHT30;61850;54.980;73.298;2022-11-15T00:00:39;2.25;95.75
73570;SHT30;61850;54.980;73.298;2022-11-15T00:03:53;2.19;95.83
73570;SHT30;61850;54.980;73.298;2022-11-15T00:06:42;2.17;95.91
73570;SHT30;61850;54.980;73.298;2022-11-15T00:09:27;2.17;95.91
73570;SHT30;61850;54.980;73.298;2022-11-15T00:12:12;2.19;95.90
73570;SHT30;61850;54.980;73.298;2022-11-15T00:14:57;2.17;95.85
73570;SHT30;61850;54.980;73.298;2022-11-15T00:17:42;2.17;95.85
73570;SHT30;61850;54.980;73.298;2022-11-15T00:20:26;2.20;95.83
73570;SHT30;61850;54.980;73.298;2022-11-15T00:23:12;2.26;95.82
73570;SHT30;61850;54.980;73.298;2022-11-15T00:25:58;2.17;96.02
73570;SHT30;61850;54.980;73.298;2022-11-15T00:28:43;2.25;95.84
73570;SHT30;61850;54.980;73.298;2022-11-15T00:31:27;2.22;95.71
73570;SHT30;61850;54.980;73.298;2022-11-15T00:34:12;2.26;95.63
73570;SHT30;61850;54.980;73.298;2022-11-15T00:36:57;2.26;95.65
73570;SHT30;61850;54.980;73.298;2022-11-15T00:39:42;2.23;95.37
73570;SHT30;61850;54.980;73.298;2022-11-15T00:42:28;2.25;95.44
73570;SHT30;61850;54.980;73.298;2022-11-15T00:45:13;2.26;95.48
73570;SHT30;61850;54.980;73.298;2022-11-15T00:47:59;2.26;95.36
73570;SHT30;61850;54.980;73.298;2022-11-15T01:03:19;2.19;95.31
73570;SHT30;61850;54.980;73.298;2022-11-15T01:06:03;2.20;95.32
73570;SHT30;61850;54.980;73.298;2022-11-15T01:08:52;2.17;95.29
73570;SHT30;61850;54.980;73.298;2022-11-15T01:11:40;2.17;95.27
73570;SHT30;61850;54.980;73.298;2022-11-15T01:14:25;2.20;95.16
73570;SHT30;61850;54.980;73.298;2022-11-15T01:17:25;2.25;95.15
73570;SHT30;61850;54.980;73.298;2022-11-15T01:20:10;2.22;95.14
73570;SHT30;61850;54.980;73.298;2022-11-15T01:22:55;2.19;94.83
73570;SHT30;61850;54.980;73.298;2022-11-15T01:25:40;2.27;95.01
73570;SHT30;61850;54.980;73.298;2022-11-15T07:43:58;2.68;92.77
73570;SHT30;61850;54.980;73.298;2022-11-15T07:46:43;2.64;93.27
73570;SHT30;61850;54.980;73.298;2022-11-15T07:49:39;2.65;93.39
73570;SHT30;61850;54.980;73.298;2022-11-15T07:52:34;2.70;93.42
73570;SHT30;61850;54.980;73.298;2022-11-15T07:55:20;2.64;93.06
73570;SHT30;61850;54.980;73.298;2022-11-15T07:58:05;2.61;93.10
73570;SHT30;61850;54.980;73.298;2022-11-15T08:00:50;2.53;92.51
73570;SHT30;61850;54.980;73.298;2022-11-15T08:03:34;2.50;93.19
73570;SHT30;61850;54.980;73.298;2022-11-15T08:06:29;2.57;93.36
73570;SHT30;61850;54.980;73.298;2022-11-15T08:09:14;2.51;93.33
73570;SHT30;61850;54.980;73.298;2022-11-15T08:12:05;2.54;93.80
73570;SHT30;61850;54.980;73.298;2022-11-15T08:14:49;2.51;93.30
73570;SHT30;61850;54.980;73.298;2022-11-15T08:17:38;2.57;93.62
73570;SHT30;61850;54.980;73.298;2022-11-15T08:20:23;2.46;92.98
73570;SHT30;61850;54.980;73.298;2022-11-15T08:23:10;2.48;93.58
73570;SHT30;61850;54.980;73.298;2022-11-15T08:26:04;2.50;94.12
73570;SHT30;61850;54.980;73.298;2022-11-15T08:28:49;2.57;94.29
73570;SHT30;61850;54.980;73.298;2022-11-15T08:31:33;2.57;94.31
73570;SHT30;61850;54.980;73.298;2022-11-15T08:34:17;2.44;93.97
73570;SHT30;61850;54.980;73.298;2022-11-15T08:37:02;2.38;94.65
73570;SHT30;61850;54.980;73.298;2022-11-15T08:39:46;2.38;95.20
73570;SHT30;61850;54.980;73.298;2022-11-15T08:42:31;2.33;95.06
73570;SHT30;61850;54.980;73.298;2022-11-15T08:45:16;2.34;96.11
73570;SHT30;61850;54.980;73.298;2022-11-15T08:48:01;2.33;95.32
73570;SHT30;61850;54.980;73.298;2022-11-15T08:50:46;2.33;95.31
73570;SHT30;61850;54.980;73.298;2022-11-15T08:53:31;2.33;95.23
73570;SHT30;61850;54.980;73.298;2022-11-15T08:56:20;2.34;95.14
73570;SHT30;61850;54.980;73.298;2022-11-15T08:59:05;2.37;95.41
73570;SHT30;61850;54.980;73.298;2022-11-15T09:01:50;2.36;95.28
73570;SHT30;61850;54.980;73.298;2022-11-15T09:04:35;2.30;94.68
73570;SHT30;61850;54.980;73.298;2022-11-15T09:07:24;2.29;94.89
73570;SHT30;61850;54.980;73.298;2022-11-15T09:10:09;2.32;94.86
73570;SHT30;61850;54.980;73.298;2022-11-15T09:12:56;2.36;95.16
73570;SHT30;61850;54.980;73.298;2022-11-15T09:15:41;2.27;94.82
73570;SHT30;61850;54.980;73.298;2022-11-15T09:18:26;2.26;95.02
73570;SHT30;61850;54.980;73.298;2022-11-15T09:21:16;2.27;94.76
73570;SHT30;61850;54.980;73.298;2022-11-15T09:24:01;2.26;95.24
73570;SHT30;61850;54.980;73.298;2022-11-15T09:26:49;2.30;95.12
73570;SHT30;61850;54.980;73.298;2022-11-15T09:29:39;2.36;95.12
73570;SHT30;61850;54.980;73.298;2022-11-15T09:32:23;2.33;95.06
73570;SHT30;61850;54.980;73.298;2022-11-15T09:35:11;2.26;95.27
73570;SHT30;61850;54.980;73.298;2022-11-15T09:37:57;2.25;94.83
73570;SHT30;61850;54.980;73.298;2022-11-15T09:40:43;2.30;95.02
73570;SHT30;61850;54.980;73.298;2022-11-15T09:43:38;2.20;94.86
73570;SHT30;61850;54.980;73.298;2022-11-15T09:49:25;2.26;95.37
73570;SHT30;61850;54.980;73.298;2022-11-15T09:52:12;2.16;95.91
73570;SHT30;61850;54.980;73.298;2022-11-15T09:54:39;2.17;96.34
73570;SHT30;61850;54.980;73.298;2022-11-15T10:05:59;2.16;97.10
73570;SHT30;61850;54.980;73.298;2022-11-15T10:08:31;2.19;96.92
73570;SHT30;61850;54.980;73.298;2022-11-15T10:11:04;2.17;96.99
73570;SHT30;61850;54.980;73.298;2022-11-15T10:13:34;2.17;96.92
73570;SHT30;61850;54.980;73.298;2022-11-15T10:16:26;2.12;97.01
73570;SHT30;61850;54.980;73.298;2022-11-15T10:24:11;2.17;96.23
73570;SHT30;61850;54.980;73.298;2022-11-15T10:26:39;2.20;96.30
73570;SHT30;61850;54.980;73.298;2022-11-15T10:29:20;2.20;95.79
73570;SHT30;61850;54.980;73.298;2022-11-15T10:31:56;2.13;95.59
73570;SHT30;61850;54.980;73.298;2022-11-15T10:34:23;2.20;96.02
73570;SHT30;61850;54.980;73.298;2022-11-15T10:37:01;2.19;95.61
73570;SHT30;61850;54.980;73.298;2022-11-15T10:39:29;2.17;95.59
73570;SHT30;61850;54.980;73.298;2022-11-15T10:41:56;2.15;95.16
73570;SHT30;61850;54.980;73.298;2022-11-15T10:44:24;2.20;95.08
73570;SHT30;61850;54.980;73.298;2022-11-15T10:54:21;2.05;93.62
73570;SHT30;61850;54.980;73.298;2022-11-15T10:56:50;2.09;93.99
73570;SHT30;61850;54.980;73.298;2022-11-15T10:59:20;2.06;94.07
73570;SHT30;61850;54.980;73.298;2022-11-15T11:01:49;2.01;93.93
73570;SHT30;61850;54.980;73.298;2022-11-15T11:04:15;2.06;94.40
73570;SHT30;61850;54.980;73.298;2022-11-15T11:09:22;2.05;94.37
73570;SHT30;61850;54.980;73.298;2022-11-15T11:11:49;2.03;94.51
73570;SHT30;61850;54.980;73.298;2022-11-15T11:14:30;1.96;94.65
73570;SHT30;61850;54.980;73.298;2022-11-15T11:17:10;1.96;94.12
73570;SHT30;61850;54.980;73.298;2022-11-15T11:22:40;2.02;93.91
73570;SHT30;61850;54.980;73.298;2022-11-15T11:25:15;2.05;93.80
73570;SHT30;61850;54.980;73.298;2022-11-15T11:33:18;2.06;94.55
73570;SHT30;61850;54.980;73.298;2022-11-15T11:35:53;2.10;94.48
73570;SHT30;61850;54.980;73.298;2022-11-15T11:41:29;2.13;93.75
73570;SHT30;61850;54.980;73.298;2022-11-15T11:47:00;2.09;93.43
73570;SHT30;61850;54.980;73.298;2022-11-15T11:49:41;2.10;93.64
73570;SHT30;61850;54.980;73.298;2022-11-15T11:57:39;2.13;93.63
73570;SHT30;61850;54.980;73.298;2022-11-15T12:00:23;2.13;93.94
73570;SHT30;61850;54.980;73.298;2022-11-15T12:03:01;2.13;94.01
73570;SHT30;61850;54.980;73.298;2022-11-15T12:05:35;2.12;93.89
73570;SHT30;61850;54.980;73.298;2022-11-15T12:11:01;2.15;94.04
73570;SHT30;61850;54.980;73.298;2022-11-15T12:13:30;2.19;93.83
73570;SHT30;61850;54.980;73.298;2022-11-15T12:16:15;2.15;93.89
73570;SHT30;61850;54.980;73.298;2022-11-15T12:18:45;2.17;94.12
73570;SHT30;61850;54.980;73.298;2022-11-15T12:21:14;2.15;94.21
73570;SHT30;61850;54.980;73.298;2022-11-15T12:23:44;2.15;94.22
73570;SHT30;61850;54.980;73.298;2022-11-15T12:26:26;2.17;94.42
73570;SHT30;61850;54.980;73.298;2022-11-15T12:28:55;2.08;94.36
73570;SHT30;61850;54.980;73.298;2022-11-15T12:34:05;2.15;94.47
73570;SHT30;61850;54.980;73.298;2022-11-15T12:36:45;2.15;94.55
73570;SHT30;61850;54.980;73.298;2022-11-15T12:40:02;2.17;94.64
73570;SHT30;61850;54.980;73.298;2022-11-15T12:47:22;2.16;94.70
73570;SHT30;61850;54.980;73.298;2022-11-15T12:49:49;2.19;94.91
73570;SHT30;61850;54.980;73.298;2022-11-15T12:52:16;2.16;94.93
73570;SHT30;61850;54.980;73.298;2022-11-15T12:59:58;2.13;95.26
73570;SHT30;61850;54.980;73.298;2022-11-15T13:02:37;2.13;95.24
73570;SHT30;61850;54.980;73.298;2022-11-15T13:22:51;1.99;94.55
73570;SHT30;61850;54.980;73.298;2022-11-15T13:30:41;2.05;93.97
73570;SHT30;61850;54.980;73.298;2022-11-15T13:33:23;2.08;94.08
73570;SHT30;61850;54.980;73.298;2022-11-15T13:35:54;1.99;94.20
73570;SHT30;61850;54.980;73.298;2022-11-15T13:38:28;2.03;94.61
73570;SHT30;61850;54.980;73.298;2022-11-15T13:40:56;2.03;94.54
73570;SHT30;61850;54.980;73.298;2022-11-15T13:43:25;1.96;93.87
73570;SHT30;61850;54.980;73.298;2022-11-15T13:48:37;1.94;93.88
73570;SHT30;61850;54.980;73.298;2022-11-15T13:51:08;1.85;93.43
73570;SHT30;61850;54.980;73.298;2022-11-15T13:53:46;1.83;93.26
73570;SHT30;61850;54.980;73.298;2022-11-15T13:56:15;1.79;95.16
73570;SHT30;61850;54.980;73.298;2022-11-15T13:58:52;1.82;92.86
73570;SHT30;61850;54.980;73.298;2022-11-15T14:01:26;1.77;92.77
73570;SHT30;61850;54.980;73.298;2022-11-15T14:03:55;1.79;92.52
73570;SHT30;61850;54.980;73.298;2022-11-15T14:06:28;1.77;92.73
73570;SHT30;61850;54.980;73.298;2022-11-15T14:09:00;1.75;93.15
73570;SHT30;61850;54.980;73.298;2022-11-15T14:11:28;1.68;93.30
73570;SHT30;61850;54.980;73.298;2022-11-15T14:14:03;1.71;93.58
73570;SHT30;61850;54.980;73.298;2022-11-15T14:16:39;1.69;93.93
73570;SHT30;61850;54.980;73.298;2022-11-15T14:22:10;1.58;93.89
73570;SHT30;61850;54.980;73.298;2022-11-15T14:24:44;1.59;93.98
73570;SHT30;61850;54.980;73.298;2022-11-15T14:29:53;1.43;94.43
73570;SHT30;61850;54.980;73.298;2022-11-15T14:32:23;1.47;94.75
73570;SHT30;61850;54.980;73.298;2022-11-15T14:34:58;1.44;94.76
73570;SHT30;61850;54.980;73.298;2022-11-15T14:37:34;1.46;95.03
73570;SHT30;61850;54.980;73.298;2022-11-15T14:40:02;1.40;95.28
73570;SHT30;61850;54.980;73.298;2022-11-15T14:42:29;1.41;95.08
73570;SHT30;61850;54.980;73.298;2022-11-15T14:45:09;1.30;95.16
73570;SHT30;61850;54.980;73.298;2022-11-15T14:47:38;1.29;95.19
73570;SHT30;61850;54.980;73.298;2022-11-15T14:50:10;1.19;94.95
73570;SHT30;61850;54.980;73.298;2022-11-15T14:52:37;1.19;94.74
73570;SHT30;61850;54.980;73.298;2022-11-15T14:57:49;1.10;94.81
73570;SHT30;61850;54.980;73.298;2022-11-15T15:00:16;1.06;94.78
73570;SHT30;61850;54.980;73.298;2022-11-15T15:02:48;1.09;94.77
73570;SHT30;61850;54.980;73.298;2022-11-15T15:05:26;1.09;94.93
73570;SHT30;61850;54.980;73.298;2022-11-15T15:07:55;1.09;94.46
73570;SHT30;61850;54.980;73.298;2022-11-15T15:10:33;1.02;94.34
73570;SHT30;61850;54.980;73.298;2022-11-15T15:13:18;1.04;94.41
73570;SHT30;61850;54.980;73.298;2022-11-15T15:15:45;1.09;94.19
73570;SHT30;61850;54.980;73.298;2022-11-15T15:18:18;1.02;93.15
73570;SHT30;61850;54.980;73.298;2022-11-15T15:20:45;1.00;93.03
73570;SHT30;61850;54.980;73.298;2022-11-15T15:23:19;0.95;92.55
73570;SHT30;61850;54.980;73.298;2022-11-15T15:25:52;0.95;92.28
73570;SHT30;61850;54.980;73.298;2022-11-15T15:28:25;0.92;92.99
73570;SHT30;61850;54.980;73.298;2022-11-15T15:30:52;0.86;92.86
73570;SHT30;61850;54.980;73.298;2022-11-15T15:33:28;0.88;93.03
73570;SHT30;61850;54.980;73.298;2022-11-15T15:35:54;0.82;92.89
73570;SHT30;61850;54.980;73.298;2022-11-15T15:38:31;0.81;93.30
73570;SHT30;61850;54.980;73.298;2022-11-15T15:40:57;0.82;93.63
73570;SHT30;61850;54.980;73.298;2022-11-15T15:43:27;0.79;92.90
73570;SHT30;61850;54.980;73.298;2022-11-15T15:45:54;0.79;92.89
73570;SHT30;61850;54.980;73.298;2022-11-15T15:48:20;0.79;93.27
73570;SHT30;61850;54.980;73.298;2022-11-15T15:50:51;0.76;92.64
73570;SHT30;61850;54.980;73.298;2022-11-15T15:53:18;0.73;91.41
73570;SHT30;61850;54.980;73.298;2022-11-15T15:55:51;0.72;91.18
73570;SHT30;61850;54.980;73.298;2022-11-15T15:58:18;0.68;90.17
73570;SHT30;61850;54.980;73.298;2022-11-15T16:00:44;0.61;90.17
73570;SHT30;61850;54.980;73.298;2022-11-15T16:03:11;0.52;89.93
73570;SHT30;61850;54.980;73.298;2022-11-15T16:05:37;0.54;90.52
73570;SHT30;61850;54.980;73.298;2022-11-15T16:08:03;0.42;90.03
73570;SHT30;61850;54.980;73.298;2022-11-15T16:10:31;0.40;90.32
73570;SHT30;61850;54.980;73.298;2022-11-15T16:13:04;0.38;90.04
73570;SHT30;61850;54.980;73.298;2022-11-15T16:15:34;0.34;89.68
73570;SHT30;61850;54.980;73.298;2022-11-15T16:18:01;0.28;88.82
73570;SHT30;61850;54.980;73.298;2022-11-15T16:20:39;0.27;89.28
73570;SHT30;61850;54.980;73.298;2022-11-15T16:23:09;0.23;89.15
73570;SHT30;61850;54.980;73.298;2022-11-15T16:25:47;0.24;89.53
73570;SHT30;61850;54.980;73.298;2022-11-15T16:28:20;0.28;89.82
73570;SHT30;61850;54.980;73.298;2022-11-15T16:31:25;0.27;89.74
73570;SHT30;61850;54.980;73.298;2022-11-15T16:33:58;0.17;89.75
73570;SHT30;61850;54.980;73.298;2022-11-15T16:36:25;0.15;89.76
73570;SHT30;61850;54.980;73.298;2022-11-15T16:38:52;0.09;89.07
73570;SHT30;61850;54.980;73.298;2022-11-15T16:41:19;-0.08;87.79
73570;SHT30;61850;54.980;73.298;2022-11-15T16:43:55;-0.15;87.55
73570;SHT30;61850;54.980;73.298;2022-11-15T16:46:23;-0.22;87.25
73570;SHT30;61850;54.980;73.298;2022-11-15T16:48:51;-0.28;87.36
73570;SHT30;61850;54.980;73.298;2022-11-15T16:51:19;-0.35;87.61
73570;SHT30;61850;54.980;73.298;2022-11-15T16:53:55;-0.42;87.77
73570;SHT30;61850;54.980;73.298;2022-11-15T16:58:49;-0.54;88.25
73570;SHT30;61850;54.980;73.298;2022-11-15T17:04:30;-0.73;88.28
73570;SHT30;61850;54.980;73.298;2022-11-15T17:07:39;-0.75;88.73
73570;SHT30;61850;54.980;73.298;2022-11-15T17:10:41;-0.77;88.85
73570;SHT30;61850;54.980;73.298;2022-11-15T17:22:50;-0.90;88.62
73570;SHT30;61850;54.980;73.298;2022-11-15T17:26:25;-1.03;87.58
73570;SHT30;61850;54.980;73.298;2022-11-15T17:29:22;-1.04;87.70
73570;SHT30;61850;54.980;73.298;2022-11-15T17:41:58;-1.14;87.29
73570;SHT30;61850;54.980;73.298;2022-11-15T17:44:56;-1.08;87.49
73570;SHT30;61850;54.980;73.298;2022-11-15T17:48:28;-1.14;87.21
73570;SHT30;61850;54.980;73.298;2022-11-15T17:51:47;-1.07;87.50
73570;SHT30;61850;54.980;73.298;2022-11-15T17:54:52;-1.07;87.17
73570;SHT30;61850;54.980;73.298;2022-11-15T17:57:58;-1.03;87.62
73570;SHT30;61850;54.980;73.298;2022-11-15T18:04:22;-0.93;88.11
73570;SHT30;61850;54.980;73.298;2022-11-15T18:07:19;-0.99;88.15
73570;SHT30;61850;54.980;73.298;2022-11-15T18:10:40;-0.97;88.38
73570;SHT30;61850;54.980;73.298;2022-11-15T18:16:51;-1.07;88.83
73570;SHT30;61850;54.980;73.298;2022-11-15T18:22:52;-0.96;89.20
73570;SHT30;61850;54.980;73.298;2022-11-15T18:26:04;-0.92;89.22
73570;SHT30;61850;54.980;73.298;2022-11-15T18:29:22;-0.92;89.13
73570;SHT30;61850;54.980;73.298;2022-11-15T18:32:20;-0.86;89.19
73570;SHT30;61850;54.980;73.298;2022-11-15T18:35:07;-0.93;89.05
73570;SHT30;61850;54.980;73.298;2022-11-15T18:38:54;-0.95;89.18
73570;SHT30;61850;54.980;73.298;2022-11-15T18:41:48;-1.07;89.41
73570;SHT30;61850;54.980;73.298;2022-11-15T18:44:45;-1.08;89.24
73570;SHT30;61850;54.980;73.298;2022-11-15T18:47:54;-1.03;89.38
73570;SHT30;61850;54.980;73.298;2022-11-15T18:57:06;-1.04;88.87
73570;SHT30;61850;54.980;73.298;2022-11-15T19:00:20;-1.08;88.92
73570;SHT30;61850;54.980;73.298;2022-11-15T19:03:20;-1.04;89.07
73570;SHT30;61850;54.980;73.298;2022-11-15T19:22:50;-1.34;89.34
73570;SHT30;61850;54.980;73.298;2022-11-15T19:26:04;-1.34;88.72
73570;SHT30;61850;54.980;73.298;2022-11-15T19:29:07;-1.34;86.98
73570;SHT30;61850;54.980;73.298;2022-11-15T19:32:11;-1.35;86.21
73570;SHT30;61850;54.980;73.298;2022-11-15T19:35:37;-1.44;85.74
73570;SHT30;61850;54.980;73.298;2022-11-15T19:39:00;-1.52;85.65
73570;SHT30;61850;54.980;73.298;2022-11-15T19:42:13;-1.59;85.35
73570;SHT30;61850;54.980;73.298;2022-11-15T19:45:22;-1.59;85.38
73570;SHT30;61850;54.980;73.298;2022-11-15T19:48:41;-1.71;85.10
73570;SHT30;61850;54.980;73.298;2022-11-15T19:51:52;-1.86;85.17
73570;SHT30;61850;54.980;73.298;2022-11-15T19:55:11;-1.87;85.64
73570;SHT30;61850;54.980;73.298;2022-11-15T19:58:10;-1.79;85.88
73570;SHT30;61850;54.980;73.298;2022-11-15T20:01:01;-1.78;86.05
73570;SHT30;61850;54.980;73.298;2022-11-15T20:04:29;-1.76;85.99
73570;SHT30;61850;54.980;73.298;2022-11-15T20:07:49;-1.72;86.18
73570;SHT30;61850;54.980;73.298;2022-11-15T20:10:58;-1.71;85.78
73570;SHT30;61850;54.980;73.298;2022-11-15T20:14:13;-1.78;86.02
73570;SHT30;61850;54.980;73.298;2022-11-15T20:17:06;-1.81;85.77
73570;SHT30;61850;54.980;73.298;2022-11-15T20:20:20;-1.79;85.24
73570;SHT30;61850;54.980;73.298;2022-11-15T20:23:23;-1.82;85.13
73570;SHT30;61850;54.980;73.298;2022-11-15T20:26:26;-1.86;85.29
73570;SHT30;61850;54.980;73.298;2022-11-15T20:29:46;-1.90;84.29
73570;SHT30;61850;54.980;73.298;2022-11-15T20:41:53;-1.94;83.16
73570;SHT30;61850;54.980;73.298;2022-11-15T20:44:39;-2.07;83.27
73570;SHT30;61850;54.980;73.298;2022-11-15T20:47:48;-2.20;83.75
73570;SHT30;61850;54.980;73.298;2022-11-15T20:51:02;-2.11;83.87
73570;SHT30;61850;54.980;73.298;2022-11-15T20:54:18;-2.07;83.85
73570;SHT30;61850;54.980;73.298;2022-11-15T20:57:59;-2.07;84.00
73570;SHT30;61850;54.980;73.298;2022-11-15T21:01:19;-2.15;83.71
73570;SHT30;61850;54.980;73.298;2022-11-15T21:04:16;-2.14;84.11
73570;SHT30;61850;54.980;73.298;2022-11-15T21:07:35;-2.13;84.32
73570;SHT30;61850;54.980;73.298;2022-11-15T21:11:07;-2.21;84.07
73570;SHT30;61850;54.980;73.298;2022-11-15T21:15:03;-2.24;84.43
73570;SHT30;61850;54.980;73.298;2022-11-15T21:18:23;-2.30;83.76
73570;SHT30;61850;54.980;73.298;2022-11-15T21:21:52;-2.30;83.90
73570;SHT30;61850;54.980;73.298;2022-11-15T21:25:14;-2.45;84.36
73570;SHT30;61850;54.980;73.298;2022-11-15T21:28:43;-2.44;84.57
73570;SHT30;61850;54.980;73.298;2022-11-15T21:32:11;-2.43;84.63
73570;SHT30;61850;54.980;73.298;2022-11-15T21:35:21;-2.40;84.58
73570;SHT30;61850;54.980;73.298;2022-11-15T21:38:28;-2.37;84.87
73570;SHT30;61850;54.980;73.298;2022-11-15T21:41:34;-2.52;84.88
73570;SHT30;61850;54.980;73.298;2022-11-15T21:44:32;-2.61;85.16
73570;SHT30;61850;54.980;73.298;2022-11-15T21:47:39;-2.57;85.55
73570;SHT30;61850;54.980;73.298;2022-11-15T21:50:41;-2.55;85.09
73570;SHT30;61850;54.980;73.298;2022-11-15T21:53:34;-2.54;84.87
73570;SHT30;61850;54.980;73.298;2022-11-15T21:57:09;-2.54;85.12
73570;SHT30;61850;54.980;73.298;2022-11-15T22:00:30;-2.48;85.23
73570;SHT30;61850;54.980;73.298;2022-11-15T22:03:48;-2.47;85.08
73570;SHT30;61850;54.980;73.298;2022-11-15T22:06:52;-2.45;85.04
73570;SHT30;61850;54.980;73.298;2022-11-15T22:10:02;-2.45;84.98
73570;SHT30;61850;54.980;73.298;2022-11-15T22:13:01;-2.45;85.39
73570;SHT30;61850;54.980;73.298;2022-11-15T22:16:32;-2.36;85.45
73570;SHT30;61850;54.980;73.298;2022-11-15T22:19:32;-2.34;85.42
73570;SHT30;61850;54.980;73.298;2022-11-15T22:22:52;-2.38;85.43
73570;SHT30;61850;54.980;73.298;2022-11-15T22:26:14;-2.36;85.76
73570;SHT30;61850;54.980;73.298;2022-11-15T22:29:18;-2.34;86.09
73570;SHT30;61850;54.980;73.298;2022-11-15T22:32:19;-2.36;86.09
73570;SHT30;61850;54.980;73.298;2022-11-15T22:35:26;-2.34;86.38
73570;SHT30;61850;54.980;73.298;2022-11-15T22:38:44;-2.43;86.27
73570;SHT30;61850;54.980;73.298;2022-11-15T22:41:34;-2.37;86.36
73570;SHT30;61850;54.980;73.298;2022-11-15T22:44:55;-2.24;86.48
73570;SHT30;61850;54.980;73.298;2022-11-15T22:48:04;-2.29;86.46
73570;SHT30;61850;54.980;73.298;2022-11-15T22:51:35;-2.24;86.27
73570;SHT30;61850;54.980;73.298;2022-11-15T22:54:37;-2.15;86.30
73570;SHT30;61850;54.980;73.298;2022-11-15T22:57:44;-2.14;86.26
73570;SHT30;61850;54.980;73.298;2022-11-15T23:00:58;-2.23;86.54
73570;SHT30;61850;54.980;73.298;2022-11-15T23:04:06;-2.24;86.74
73570;SHT30;61850;54.980;73.298;2022-11-15T23:07:22;-2.27;87.17
73570;SHT30;61850;54.980;73.298;2022-11-15T23:10:30;-2.24;87.00
73570;SHT30;61850;54.980;73.298;2022-11-15T23:14:13;-2.21;87.03
73570;SHT30;61850;54.980;73.298;2022-11-15T23:17:22;-2.24;86.86
73570;SHT30;61850;54.980;73.298;2022-11-15T23:20:36;-2.26;86.97
73570;SHT30;61850;54.980;73.298;2022-11-15T23:27:00;-2.44;87.86
73570;SHT30;61850;54.980;73.298;2022-11-15T23:30:22;-2.44;87.51
73570;SHT30;61850;54.980;73.298;2022-11-15T23:33:34;-2.47;87.26
73570;SHT30;61850;54.980;73.298;2022-11-15T23:36:52;-2.57;87.64
73570;SHT30;61850;54.980;73.298;2022-11-15T23:40:14;-2.65;87.32
73570;SHT30;61850;54.980;73.298;2022-11-15T23:43:48;-2.65;87.43
73570;SHT30;61850;54.980;73.298;2022-11-15T23:46:52;-2.64;86.97
73570;SHT30;61850;54.980;73.298;2022-11-15T23:49:51;-2.60;87.01
73570;SHT30;61850;54.980;73.298;2022-11-15T23:53:11;-2.68;87.20
73570;SHT30;61850;54.980;73.298;2022-11-15T23:56:10;-2.73;87.47
73570;SHT30;61850;54.980;73.298;2022-11-15T23:59:07;-2.71;87.60
